Overview Statistics Trail Chart Weather Telemetry Raw packets
 

This is the latest recevied weather packets stored in our database for station/object DL8BZ-10. If no packets are shown the sender has not sent any weather packets the latest 10 day(s).

<< 1 2 3 4 >>
Time Temp. Humidity Pressure Rain* Wind** Luminosity Snow
1788124484 21.67° C 56% 1011.8 hPa - - - -
1788117274 22.78° C 52% 1012 hPa - - - -
1788102842 26.11° C 43% 1011.9 hPa - - - -
1788095628 26.67° C 42% 1011.6 hPa - - - -
1788088414 23.89° C 48% 1011.2 hPa - - - -
1788073988 22.22° C 53% 1009.3 hPa - - - -
1788066775 21.11° C 57% 1008.4 hPa - - - -
1788059561 21.67° C 58% 1007.7 hPa - - - -
1788052348 22.22° C 55% 1007.5 hPa - - - -
1788045137 22.78° C 52% 1008 hPa - - - -
1788037926 23.33° C 50% 1009 hPa - - - -
1788030712 23.89° C 47% 1009.3 hPa - - - -
1788023502 25° C 42% 1009.7 hPa - - - -
1788009073 34.44° C 25% 1010.2 hPa - - - -
1788001860 40.56° C 17% 1010.4 hPa - - - -
1787994659 30.56° C 30% 1010.8 hPa - - - -
1787980230 21.11° C 54% 1010.7 hPa - - - -
1787958588 21.67° C 53% 1011.2 hPa - - - -
1787936949 27.78° C 38% 1007.6 hPa - - - -
1787929736 40° C 21% 1007 hPa - - - -
1787922523 28.33° C 45% 1008.2 hPa - - - -
1787915313 29.44° C 44% 1007.8 hPa - - - -
1787908096 26.67° C 47% 1007.4 hPa - - - -
1787900881 25.56° C 48% 1007.2 hPa - - - -
1787893670 24.44° C 51% 1006.5 hPa - - - -

* Rain since midnight (hover to see other rain measurements)
** Current wind speed in m/s (hover to see current wind gust speed)